^^
Saratoga-Weather Station Historical Data
Daily Summary for June 30, 2021 Units:  English    Metric   Both
Daily Weekly Monthly Yearly Custom
  High: Low: Average:
Temperature: 43 °F 35.1 °F 38.8 °F
Dew Point: 41.4 °F 32.9 °F 37 °F
Humidity: 95% 89% 93%
Wind Speed: 15mph 0mph 4.4mph
Wind Gust: 19mph - -
Wind- - West
Pressure: 30 in 29.9 in -
Precipitation: 0.22 in    
Historical Graphs
 
 
Tabular Data for June 30, 2021
Time Temperature Dew Point Pressure Wind Wind Speed Wind Gust Humidity Rainfall Rate (Hourly) solar
00:04 36.9 °F 34.5 °F 30 in WSW 2 mph 10 mph 91% 0 in 0 W/m2
00:09 36.9 °F 34.5 °F 30 in West 6 mph 8 mph 91% 0 in 0 W/m2
00:14 36.9 °F 34.5 °F 30 in West 2.9 mph 9 mph 91% 0 in 0 W/m2
00:19 36.9 °F 34.5 °F 30 in West 6 mph 9 mph 91% 0 in 0 W/m2
00:24 36.9 °F 34.5 °F 30 in WSW 8.1 mph 11 mph 91% 0 in 0 W/m2
00:29 36.9 °F 34.5 °F 30 in WSW 4.9 mph 6 mph 91% 0 in 0 W/m2
00:34 36.9 °F 34.5 °F 30 in WNW 4 mph 6 mph 91% 0 in 0 W/m2
00:39 36.9 °F 34.5 °F 30 in WNW 2.9 mph 9 mph 91% 0 in 0 W/m2
00:44 36.9 °F 34.5 °F 30 in WSW 6 mph 12 mph 91% 0 in 0 W/m2
00:49 36.9 °F 34.5 °F 30 in WSW 4 mph 8 mph 91% 0 in 0 W/m2
00:54 36.7 °F 34.3 °F 30 in West 2.9 mph 8 mph 91% 0 in 0 W/m2
00:59 36.7 °F 34.3 °F 30 in NW 2.9 mph 5 mph 91% 0 in 0 W/m2
01:04 36.7 °F 34.3 °F 30 in WNW 2 mph 6 mph 91% 0 in 0 W/m2
01:09 36.7 °F 34.3 °F 30 in WSW 0.9 mph 10 mph 91% 0 in 0 W/m2
01:14 36.7 °F 34.3 °F 30 in SW 2.9 mph 5 mph 91% 0 in 0 W/m2
01:19 36.5 °F 34.2 °F 30 in Calm   7 mph 91% 0 in 0 W/m2
01:24 36.5 °F 34.2 °F 30 in WNW 0.9 mph 4 mph 91% 0 in 0 W/m2
01:34 36.3 °F 34 °F 30 in WNW 4 mph 8 mph 91% 0 in 0 W/m2
01:39 36.1 °F 33.8 °F 30 in West 4 mph 6 mph 91% 0 in 0 W/m2
01:44 36.1 °F 33.8 °F 30 in West 0.9 mph 8 mph 91% 0 in 0 W/m2
01:49 36.1 °F 33.8 °F 30 in WNW 2.9 mph 11 mph 91% 0 in 0 W/m2
01:54 36.1 °F 33.8 °F 30 in WNW 2 mph 4 mph 91% 0 in 0 W/m2
01:59 36.1 °F 33.8 °F 30 in WSW 0.9 mph 3 mph 91% 0 in 0 W/m2
02:04 36.1 °F 33.8 °F 30 in WNW 2.9 mph 11 mph 91% 0 in 0 W/m2
02:10 36.1 °F 33.8 °F 30 in West 2.9 mph 10 mph 91% 0 in 0 W/m2
02:15 36.1 °F 33.8 °F 30 in Calm   8 mph 91% 0 in 0 W/m2
02:20 36.1 °F 33.8 °F 30 in West 4 mph 10 mph 91% 0 in 0 W/m2
02:25 36.1 °F 33.8 °F 30 in NW 2 mph 4 mph 91% 0 in 0 W/m2
02:30 36.1 °F 33.8 °F 30 in WNW 2 mph 10 mph 91% 0 in 0 W/m2
02:35 36.1 °F 33.8 °F 30 in WSW 0.9 mph 4 mph 91% 0 in 0 W/m2
02:40 36.1 °F 33.8 °F 30 in SSW 6 mph 10 mph 91% 0 in 0 W/m2
02:45 36.1 °F 33.8 °F 30 in Calm   3 mph 91% 0 in 0 W/m2
02:50 36.1 °F 33.8 °F 30 in WNW 2 mph 7 mph 91% 0 in 0 W/m2
02:55 36.3 °F 34 °F 30 in WSW 6 mph 12 mph 91% 0 in 0 W/m2
03:00 36.3 °F 34 °F 30 in Calm   5 mph 91% 0 in 0 W/m2
03:05 36.1 °F 33.8 °F 30 in Calm   12 mph 91% 0 in 0 W/m2
03:10 36.1 °F 33.8 °F 30 in Calm   4 mph 91% 0 in 0 W/m2
03:15 36.1 °F 33.8 °F 30 in WNW 2.9 mph 8 mph 91% 0 in 0 W/m2
03:20 36.1 °F 33.8 °F 30 in SW 2.9 mph 6 mph 91% 0 in 0 W/m2
03:25 36.1 °F 33.8 °F 30 in WNW 0.9 mph 3 mph 91% 0 in 0 W/m2
03:30 36.1 °F 33.8 °F 30 in West 2 mph 5 mph 91% 0 in 0 W/m2
03:35 36.1 °F 33.8 °F 30 in NNW 2.9 mph 5 mph 91% 0 in 0 W/m2
03:40 36.1 °F 33.8 °F 30 in WSW 4.9 mph 6 mph 91% 0 in 0 W/m2
03:45 36.1 °F 33.8 °F 30 in WNW 0.9 mph 2 mph 91% 0 in 0 W/m2
03:50 36.1 °F 33.8 °F 30 in NNW 0.9 mph 5 mph 91% 0 in 0 W/m2
03:55 36.3 °F 33.6 °F 30 in NNW 4.9 mph 5 mph 90% 0 in 0 W/m2
04:00 36.3 °F 33.6 °F 30 in South 2 mph 6 mph 90% 0 in 0 W/m2
04:05 36.3 °F 33.6 °F 30 in Calm   2 mph 90% 0 in 0 W/m2
04:10 36.3 °F 33.6 °F 30 in Calm   4 mph 90% 0 in 0 W/m2
04:15 36.5 °F 33.8 °F 30 in WSW 4 mph 6 mph 90% 0 in 0 W/m2
04:20 36.5 °F 33.8 °F 30 in WNW 2 mph 7 mph 90% 0 in 0 W/m2
04:25 36.7 °F 34 °F 30 in West 6 mph 10 mph 90% 0 in 0 W/m2
04:30 36.7 °F 33.8 °F 30 in Calm   7 mph 89% 0 in 0 W/m2
04:35 36.7 °F 33.8 °F 30 in WSW 2 mph 10 mph 89% 0 in 0 W/m2
04:40 36.7 °F 33.8 °F 30 in Calm   2 mph 89% 0 in 0 W/m2
04:45 36.9 °F 34 °F 30 in NNW 2.9 mph 4 mph 89% 0 in 0 W/m2
04:50 36.9 °F 34 °F 30 in Calm   9 mph 89% 0 in 0 W/m2
04:55 36.7 °F 34 °F 30 in WSW 0.9 mph 6 mph 90% 0 in 0 W/m2
05:00 36.7 °F 34 °F 30 in Calm   6 mph 90% 0 in 0 W/m2
05:05 36.5 °F 33.8 °F 30 in WNW 2.9 mph 4 mph 90% 0 in 0 W/m2
05:10 36.3 °F 34 °F 30 in NW 2 mph 5 mph 91% 0 in 0 W/m2
05:20 36.3 °F 34 °F 30 in NW 2 mph 5 mph 91% 0 in 0 W/m2
05:25 36.3 °F 34 °F 30 in ENE 4 mph 5 mph 91% 0 in 0 W/m2
05:30 36.3 °F 34 °F 30 in WSW 2.9 mph 3 mph 91% 0 in 0 W/m2
05:35 36.1 °F 33.8 °F 30 in NW 2.9 mph 6 mph 91% 0.01 in 0 W/m2
05:40 36.1 °F 33.8 °F 30 in NNW 4 mph 5 mph 91% 0.01 in 0 W/m2
05:45 35.8 °F 33.4 °F 30 in North 2 mph 11 mph 91% 0.01 in 0 W/m2
05:50 35.8 °F 33.4 °F 30 in WNW 2.9 mph 4 mph 91% 0.02 in 0 W/m2
05:55 35.6 °F 33.4 °F 30 in Calm   8 mph 92% 0.02 in 0 W/m2
06:00 35.4 °F 33.3 °F 30 in ENE 2.9 mph 4 mph 92% 0.02 in 0 W/m2
06:05 35.2 °F 33.1 °F 30 in Calm   4 mph 92% 0.02 in 0 W/m2
06:10 35.2 °F 33.1 °F 30 in East 2.9 mph 9 mph 92% 0.02 in 0 W/m2
06:15 35.1 °F 32.9 °F 30 in SSW 2 mph 4 mph 92% 0.03 in 0 W/m2
06:20 35.1 °F 32.9 °F 30 in WNW 0.9 mph 3 mph 92% 0.03 in 0 W/m2
06:30 35.1 °F 33.3 °F 30 in WSW 4 mph 9 mph 93% 0.05 in 0 W/m2
06:35 35.1 °F 33.3 °F 30 in WNW 6.9 mph 8 mph 93% 0.04 in 0 W/m2
06:40 35.2 °F 33.4 °F 30 in NNW 2 mph 6 mph 93% 0.05 in 0 W/m2
06:45 35.2 °F 33.4 °F 30 in NNW 2 mph 8 mph 93% 0.06 in 0 W/m2
06:50 35.2 °F 33.6 °F 30 in NNW 2.9 mph 7 mph 94% 0.06 in 0 W/m2
06:55 35.2 °F 33.6 °F 30 in SW 4.9 mph 13 mph 94% 0.06 in 0 W/m2
07:00 35.4 °F 33.8 °F 30 in NE 2.9 mph 7 mph 94% 0.07 in 0 W/m2
07:05 35.4 °F 33.8 °F 30 in NNW 4 mph 7 mph 94% 0.07 in 0 W/m2
07:10 35.6 °F 34 °F 30 in WNW 2 mph 6 mph 94% 0.07 in 0 W/m2
07:15 35.8 °F 34.2 °F 30 in WSW 4.9 mph 12 mph 94% 0.07 in 0 W/m2
07:20 36 °F 34.3 °F 30 in West 6 mph 12 mph 94% 0.07 in 0 W/m2
07:25 36.1 °F 34.5 °F 30 in WSW 4 mph 11 mph 94% 0.06 in 0 W/m2
07:30 36.3 °F 34.7 °F 29.9 in ENE 2.9 mph 10 mph 94% 0.06 in 0 W/m2
07:35 36.3 °F 34.7 °F 29.9 in NW 2.9 mph 7 mph 94% 0.06 in 0 W/m2
07:40 36.5 °F 34.9 °F 29.9 in WNW 2.9 mph 17 mph 94% 0.06 in 0 W/m2
07:45 36.7 °F 35.1 °F 29.9 in NW 2.9 mph 7 mph 94% 0.06 in 0 W/m2
07:50 36.7 °F 35.1 °F 29.9 in WNW 4 mph 17 mph 94% 0.05 in 0 W/m2
07:55 36.7 °F 35.1 °F 29.9 in WNW 4.9 mph 10 mph 94% 0.05 in 0 W/m2
08:00 36.9 °F 35.2 °F 30 in WSW 6.9 mph 12 mph 94% 0.04 in 0 W/m2
08:05 36.9 °F 35.2 °F 30 in West 4 mph 10 mph 94% 0.03 in 0 W/m2
08:10 37 °F 35.4 °F 30 in WNW 4 mph 13 mph 94% 0.03 in 0 W/m2
08:20 37 °F 35.4 °F 30 in SSW 0.9 mph 11 mph 94% 0.03 in 0 W/m2
08:30 37.2 °F 35.6 °F 30 in West 11 mph 14 mph 94% 0.02 in 0 W/m2
08:35 37.2 °F 35.6 °F 30 in WSW 8.9 mph 11 mph 94% 0.02 in 0 W/m2
08:40 37.2 °F 35.6 °F 30 in WNW 4.9 mph 10 mph 94% 0.02 in 5 W/m2
08:45 37.2 °F 35.6 °F 30 in SW 4.9 mph 14 mph 94% 0.02 in 5 W/m2
08:50 37.2 °F 35.6 °F 30 in SW 4 mph 10 mph 94% 0.02 in 5 W/m2
08:55 37.2 °F 35.6 °F 30 in West 6 mph 11 mph 94% 0.01 in 7 W/m2
09:00 37.2 °F 35.6 °F 30 in West 2.9 mph 10 mph 94% 0.01 in 11 W/m2
09:05 37.4 °F 35.8 °F 30 in WNW 8.1 mph 11 mph 94% 0.02 in 12 W/m2
09:10 37.4 °F 35.8 °F 30 in NNW 6 mph 11 mph 94% 0.02 in 16 W/m2
09:15 37.6 °F 36 °F 30 in NW 6 mph 8 mph 94% 0.02 in 18 W/m2
09:20 37.6 °F 36 °F 30 in WSW 6 mph 16 mph 94% 0.01 in 21 W/m2
09:25 37.6 °F 36 °F 30 in West 10.1 mph 18 mph 94% 0.01 in 25 W/m2
09:30 37.8 °F 36.1 °F 30 in WNW 4.9 mph 9 mph 94% 0.01 in 25 W/m2
09:35 37.8 °F 36.1 °F 30 in WNW 8.9 mph 18 mph 94% 0.02 in 25 W/m2
09:40 37.8 °F 36.1 °F 30 in NW 6 mph 13 mph 94% 0.02 in 30 W/m2
09:45 37.8 °F 36.1 °F 29.9 in WNW 4 mph 7 mph 94% 0.02 in 23 W/m2
09:50 37.9 °F 36.3 °F 29.9 in WSW 4 mph 13 mph 94% 0.02 in 30 W/m2
09:55 37.9 °F 36.3 °F 30 in WSW 15 mph 15 mph 94% 0.02 in 39 W/m2
10:01 37.9 °F 36.3 °F 29.9 in West 4 mph 14 mph 94% 0.02 in 35 W/m2
10:06 37.9 °F 36.3 °F 29.9 in WSW 2.9 mph 15 mph 94% 0.02 in 30 W/m2
10:11 37.9 °F 36.3 °F 29.9 in WNW 11 mph 14 mph 94% 0.02 in 26 W/m2
10:16 37.9 °F 36.3 °F 29.9 in WSW 4.9 mph 10 mph 94% 0.02 in 25 W/m2
10:21 37.9 °F 36.3 °F 29.9 in West 2 mph 11 mph 94% 0.02 in 30 W/m2
10:26 37.9 °F 36.3 °F 30 in NW 2.9 mph 12 mph 94% 0.02 in 39 W/m2
10:31 37.9 °F 36.3 °F 29.9 in WNW 6.9 mph 11 mph 94% 0.02 in 46 W/m2
10:36 37.9 °F 36.3 °F 30 in West 4 mph 10 mph 94% 0.02 in 40 W/m2
10:41 37.9 °F 36.3 °F 29.9 in NNW 8.1 mph 11 mph 94% 0.02 in 32 W/m2
10:46 37.9 °F 36.3 °F 29.9 in NW 4 mph 11 mph 94% 0.01 in 35 W/m2
10:51 37.9 °F 36.3 °F 29.9 in WSW 4 mph 10 mph 94% 0.01 in 39 W/m2
10:56 37.9 °F 36.3 °F 29.9 in WNW 4 mph 4 mph 94% 0.01 in 32 W/m2
11:01 37.9 °F 36.3 °F 29.9 in NW 2 mph 8 mph 94% 0.02 in 28 W/m2
11:06 37.9 °F 36.3 °F 29.9 in West 8.1 mph 10 mph 94% 0.02 in 33 W/m2
11:11 37.9 °F 36.3 °F 29.9 in NNW 4 mph 10 mph 94% 0.01 in 54 W/m2
11:16 37.9 °F 36.3 °F 29.9 in West 6.9 mph 12 mph 94% 0.01 in 58 W/m2
11:21 37.9 °F 36.3 °F 29.9 in SW 4 mph 16 mph 94% 0.01 in 42 W/m2
11:26 37.9 °F 36.3 °F 29.9 in SSW 2 mph 12 mph 94% 0.01 in 53 W/m2
11:31 37.9 °F 36.3 °F 29.9 in WNW 6.9 mph 16 mph 94% 0.02 in 53 W/m2
11:36 37.9 °F 36.3 °F 29.9 in West 6 mph 11 mph 94% 0.02 in 35 W/m2
11:41 37.9 °F 36.3 °F 29.9 in WNW 8.1 mph 16 mph 94% 0.02 in 40 W/m2
11:46 37.9 °F 36.3 °F 29.9 in WNW 6.9 mph 9 mph 94% 0.02 in 49 W/m2
11:51 37.9 °F 36.3 °F 29.9 in WSW 4 mph 12 mph 94% 0.02 in 60 W/m2
11:56 37.9 °F 36.3 °F 29.9 in WNW 4 mph 13 mph 94% 0.02 in 53 W/m2
12:01 38.1 °F 36.5 °F 29.9 in NW 8.1 mph 11 mph 94% 0.01 in 42 W/m2
12:06 38.1 °F 36.5 °F 29.9 in West 8.1 mph 11 mph 94% 0.01 in 35 W/m2
12:11 38.1 °F 36.5 °F 29.9 in WNW 4.9 mph 14 mph 94% 0.01 in 42 W/m2
12:16 38.1 °F 36.5 °F 29.9 in WNW 8.1 mph 8 mph 94% 0.01 in 39 W/m2
12:21 38.1 °F 36.5 °F 29.9 in West 2 mph 9 mph 94% 0.01 in 35 W/m2
12:26 38.3 °F 36.7 °F 29.9 in NNE 4 mph 12 mph 94% 0.01 in 30 W/m2
12:31 38.3 °F 36.7 °F 29.9 in West 6 mph 8 mph 94% 0 in 30 W/m2
12:36 38.3 °F 36.7 °F 29.9 in SSW 4 mph 10 mph 94% 0 in 32 W/m2
12:41 38.3 °F 36.7 °F 29.9 in Calm   15 mph 94% 0 in 37 W/m2
12:46 38.5 °F 36.9 °F 29.9 in WNW 10.1 mph 10 mph 94% 0 in 35 W/m2
12:51 38.5 °F 36.9 °F 29.9 in West 8.9 mph 13 mph 94% 0 in 37 W/m2
12:56 38.5 °F 36.9 °F 29.9 in West 4 mph 14 mph 94% 0.01 in 35 W/m2
13:01 38.5 °F 36.9 °F 29.9 in WNW 6.9 mph 12 mph 94% 0.01 in 39 W/m2
13:06 38.7 °F 37 °F 29.9 in WSW 4.9 mph 19 mph 94% 0.01 in 42 W/m2
13:11 38.7 °F 37 °F 29.9 in WNW 6.9 mph 11 mph 94% 0.01 in 35 W/m2
13:16 38.7 °F 37 °F 29.9 in West 6.9 mph 12 mph 94% 0.01 in 39 W/m2
13:21 38.7 °F 37 °F 29.9 in NW 10.1 mph 11 mph 94% 0.01 in 35 W/m2
13:31 38.7 °F 37 °F 29.9 in NW 8.1 mph 17 mph 94% 0.01 in 35 W/m2
13:36 38.7 °F 37 °F 29.9 in NNW 8.9 mph 10 mph 94% 0.01 in 32 W/m2
13:41 38.7 °F 37 °F 29.9 in WSW 4.9 mph 16 mph 94% 0.01 in 33 W/m2
13:46 38.8 °F 37.2 °F 29.9 in WNW 2 mph 8 mph 94% 0.01 in 32 W/m2
13:51 38.8 °F 37.2 °F 29.9 in West 6.9 mph 16 mph 94% 0.01 in 26 W/m2
13:56 38.8 °F 37.2 °F 29.9 in NW 8.1 mph 15 mph 94% 0 in 30 W/m2
14:01 38.8 °F 37.2 °F 29.9 in WSW 2.9 mph 16 mph 94% 0 in 28 W/m2
14:06 39 °F 37.4 °F 29.9 in WSW 8.1 mph 13 mph 94% 0 in 26 W/m2
14:11 39 °F 37.4 °F 29.9 in WSW 4.9 mph 9 mph 94% 0 in 33 W/m2
14:16 39 °F 37.4 °F 29.9 in WNW 8.1 mph 13 mph 94% 0 in 28 W/m2
14:21 39 °F 37.4 °F 29.9 in WNW 13 mph 16 mph 94% 0 in 26 W/m2
14:26 39 °F 37.4 °F 29.9 in WNW 14.1 mph 15 mph 94% 0 in 26 W/m2
14:31 39 °F 37.4 °F 29.9 in NNE 2 mph 4 mph 94% 0 in 23 W/m2
14:41 39.4 °F 38.1 °F 29.9 in Calm   10 mph 95% 0 in 25 W/m2
14:46 39.4 °F 38.1 °F 29.9 in NW 4.9 mph 14 mph 95% 0 in 23 W/m2
14:51 39.6 °F 38.3 °F 29.9 in WNW 4.9 mph 8 mph 95% 0 in 21 W/m2
15:06 39.6 °F 38.3 °F 29.9 in SW 2 mph 8 mph 95% 0 in 28 W/m2
15:11 39.6 °F 38.3 °F 29.9 in NNW 4 mph 11 mph 95% 0 in 21 W/m2
15:16 39.7 °F 38.5 °F 29.9 in West 2.9 mph 14 mph 95% 0 in 16 W/m2
15:21 39.7 °F 38.5 °F 29.9 in West 11 mph 11 mph 95% 0 in 16 W/m2
15:26 39.7 °F 38.5 °F 29.9 in West 4 mph 16 mph 95% 0 in 18 W/m2
15:31 39.7 °F 38.5 °F 29.9 in SW 0.9 mph 11 mph 95% 0 in 18 W/m2
15:36 39.9 °F 38.7 °F 29.9 in NNW 8.1 mph 15 mph 95% 0 in 14 W/m2
15:41 39.9 °F 38.7 °F 29.9 in West 2.9 mph 7 mph 95% 0 in 12 W/m2
15:46 40.1 °F 38.8 °F 29.9 in WNW 8.1 mph 12 mph 95% 0 in 14 W/m2
15:51 40.1 °F 38.8 °F 29.9 in NW 11 mph 15 mph 95% 0 in 19 W/m2
15:56 40.3 °F 39 °F 29.9 in NNW 4.9 mph 8 mph 95% 0 in 23 W/m2
16:01 40.3 °F 39 °F 29.9 in SW 4 mph 15 mph 95% 0.01 in 21 W/m2
16:06 40.3 °F 39 °F 29.9 in WNW 2 mph 9 mph 95% 0.01 in 23 W/m2
16:11 40.3 °F 39 °F 29.9 in West 2.9 mph 12 mph 95% 0.01 in 18 W/m2
16:16 40.3 °F 39 °F 29.9 in West 6 mph 15 mph 95% 0.01 in 12 W/m2
16:21 40.5 °F 39.2 °F 29.9 in NW 4.9 mph 14 mph 95% 0.01 in 9 W/m2
16:26 40.5 °F 39.2 °F 29.9 in NW 11 mph 15 mph 95% 0.01 in 11 W/m2
16:31 40.5 °F 39.2 °F 29.9 in WNW 2.9 mph 10 mph 95% 0.01 in 7 W/m2
16:36 40.5 °F 39.2 °F 29.9 in NW 10.1 mph 10 mph 95% 0.01 in 0 W/m2
16:41 40.6 °F 39.4 °F 29.9 in West 6 mph 8 mph 95% 0.01 in 0 W/m2
16:46 40.6 °F 39.4 °F 29.9 in WNW 8.1 mph 9 mph 95% 0.01 in 0 W/m2
16:51 40.6 °F 39.4 °F 29.9 in WNW 10.1 mph 13 mph 95% 0.01 in 0 W/m2
16:56 40.6 °F 39.4 °F 29.9 in SW 4.9 mph 9 mph 95% 0.01 in 0 W/m2
17:01 40.6 °F 39.4 °F 29.9 in WNW 10.1 mph 14 mph 95% 0.01 in 0 W/m2
17:06 40.8 °F 39.6 °F 29.9 in North 12.1 mph 14 mph 95% 0.01 in 0 W/m2
17:11 40.8 °F 39.6 °F 29.9 in NW 4 mph 13 mph 95% 0.01 in 0 W/m2
17:16 40.8 °F 39.6 °F 29.9 in NW 4.9 mph 14 mph 95% 0.01 in 0 W/m2
17:21 40.8 °F 39.6 °F 29.9 in NW 4.9 mph 11 mph 95% 0.01 in 0 W/m2
17:26 41 °F 39.7 °F 29.9 in NW 10.1 mph 10 mph 95% 0.01 in 0 W/m2
17:32 41.2 °F 39.9 °F 29.9 in West 4 mph 12 mph 95% 0.01 in 0 W/m2
17:37 41.2 °F 39.9 °F 29.9 in NNW 0.9 mph 13 mph 95% 0.01 in 0 W/m2
17:42 41.2 °F 39.9 °F 29.9 in SW 2.9 mph 14 mph 95% 0.01 in 0 W/m2
17:47 41.2 °F 39.9 °F 29.9 in NW 6 mph 15 mph 95% 0.01 in 0 W/m2
17:52 41.4 °F 40.1 °F 29.9 in North 8.1 mph 10 mph 95% 0.01 in 0 W/m2
17:57 41.4 °F 40.1 °F 29.9 in WNW 4 mph 9 mph 95% 0.01 in 0 W/m2
18:02 41.4 °F 40.1 °F 29.9 in NW 8.1 mph 12 mph 95% 0 in 0 W/m2
18:07 41.5 °F 40.3 °F 29.9 in West 4 mph 11 mph 95% 0.01 in 0 W/m2
18:12 41.5 °F 40.3 °F 29.9 in WNW 8.9 mph 14 mph 95% 0.01 in 0 W/m2
18:17 41.5 °F 40.3 °F 29.9 in WNW 2.9 mph 11 mph 95% 0.01 in 0 W/m2
18:22 41.5 °F 40.3 °F 29.9 in West 2.9 mph 10 mph 95% 0.01 in 0 W/m2
18:27 41.7 °F 40.5 °F 29.9 in NW 2 mph 10 mph 95% 0.01 in 0 W/m2
18:32 41.7 °F 40.5 °F 29.9 in SW 4 mph 16 mph 95% 0.01 in 0 W/m2
18:37 41.7 °F 40.5 °F 29.9 in NNW 6 mph 9 mph 95% 0.01 in 0 W/m2
18:42 41.7 °F 40.5 °F 29.9 in WNW 4 mph 16 mph 95% 0.01 in 0 W/m2
18:47 41.7 °F 40.5 °F 29.9 in WNW 2 mph 4 mph 95% 0.01 in 0 W/m2
18:52 41.7 °F 40.5 °F 29.9 in West 2.9 mph 10 mph 95% 0.01 in 0 W/m2
18:57 41.7 °F 40.5 °F 29.9 in WNW 4 mph 7 mph 95% 0.01 in 0 W/m2
19:02 41.7 °F 40.5 °F 29.9 in West 6 mph 15 mph 95% 0.01 in 0 W/m2
19:07 41.7 °F 40.5 °F 29.9 in WNW 4 mph 9 mph 95% 0 in 0 W/m2
19:12 41.7 °F 40.5 °F 29.9 in NNW 4 mph 11 mph 95% 0 in 0 W/m2
19:17 41.7 °F 40.5 °F 29.9 in West 2 mph 10 mph 95% 0 in 0 W/m2
19:22 41.7 °F 40.5 °F 29.9 in West 2.9 mph 9 mph 95% 0 in 0 W/m2
19:27 41.7 °F 40.5 °F 29.9 in West 6 mph 13 mph 95% 0 in 0 W/m2
19:32 41.9 °F 40.6 °F 29.9 in NW 4 mph 9 mph 95% 0 in 0 W/m2
19:37 41.9 °F 40.6 °F 29.9 in South 2 mph 13 mph 95% 0 in 0 W/m2
19:42 41.9 °F 40.6 °F 29.9 in Calm   7 mph 95% 0 in 0 W/m2
19:47 41.9 °F 40.6 °F 29.9 in WSW 2.9 mph 13 mph 95% 0 in 0 W/m2
19:52 41.9 °F 40.6 °F 29.9 in West 0.9 mph 9 mph 95% 0 in 0 W/m2
19:57 42.1 °F 40.8 °F 29.9 in NNW 4 mph 13 mph 95% 0 in 0 W/m2
20:02 42.1 °F 40.8 °F 29.9 in South 8.1 mph 12 mph 95% 0 in 0 W/m2
20:07 42.1 °F 40.8 °F 29.9 in West 6 mph 13 mph 95% 0 in 0 W/m2
20:12 42.1 °F 40.8 °F 29.9 in NW 2 mph 8 mph 95% 0.01 in 0 W/m2
20:17 42.1 °F 40.8 °F 29.9 in NW 0.9 mph 8 mph 95% 0.01 in 0 W/m2
20:22 42.3 °F 41 °F 29.9 in NE 2 mph 9 mph 95% 0.01 in 0 W/m2
20:27 42.3 °F 41 °F 29.9 in West 6.9 mph 9 mph 95% 0.01 in 0 W/m2
20:32 42.3 °F 41 °F 29.9 in NNW 4 mph 12 mph 95% 0.01 in 0 W/m2
20:37 42.3 °F 41 °F 29.9 in West 6.9 mph 9 mph 95% 0.01 in 0 W/m2
20:42 42.3 °F 41 °F 29.9 in NNE 2.9 mph 12 mph 95% 0.01 in 0 W/m2
20:47 42.3 °F 41 °F 29.9 in West 6 mph 10 mph 95% 0.01 in 0 W/m2
20:52 42.3 °F 41 °F 29.9 in WSW 6 mph 10 mph 95% 0.01 in 0 W/m2
20:57 42.4 °F 40.8 °F 29.9 in WSW 4 mph 19 mph 94% 0.01 in 0 W/m2
21:02 42.4 °F 40.8 °F 29.9 in WNW 8.1 mph 8 mph 94% 0.01 in 0 W/m2
21:07 42.4 °F 40.8 °F 29.9 in West 4 mph 16 mph 94% 0.01 in 0 W/m2
21:12 42.4 °F 40.8 °F 29.9 in NW 4 mph 10 mph 94% 0 in 0 W/m2
21:17 42.4 °F 40.8 °F 29.9 in WNW 2.9 mph 9 mph 94% 0 in 0 W/m2
21:22 42.4 °F 40.8 °F 29.9 in NNW 0.9 mph 11 mph 94% 0 in 0 W/m2
21:27 42.4 °F 40.8 °F 29.9 in WSW 4.9 mph 8 mph 94% 0 in 0 W/m2
21:32 42.4 °F 40.8 °F 29.9 in SW 0.9 mph 9 mph 94% 0 in 0 W/m2
21:37 42.6 °F 41 °F 29.9 in West 6.9 mph 13 mph 94% 0 in 0 W/m2
21:42 42.6 °F 41 °F 29.9 in ENE 0.9 mph 9 mph 94% 0 in 0 W/m2
21:47 42.6 °F 41 °F 29.9 in WSW 8.1 mph 9 mph 94% 0 in 0 W/m2
21:52 42.6 °F 41 °F 29.9 in WNW 4.9 mph 13 mph 94% 0 in 0 W/m2
21:57 42.6 °F 41 °F 29.9 in WNW 4.9 mph 9 mph 94% 0 in 0 W/m2
22:02 42.8 °F 41.2 °F 29.9 in NNW 8.1 mph 13 mph 94% 0 in 0 W/m2
22:07 42.8 °F 41.2 °F 29.9 in SSW 4 mph 14 mph 94% 0 in 0 W/m2
22:12 43 °F 41.4 °F 29.9 in NE 2.9 mph 5 mph 94% 0 in 0 W/m2
22:17 43 °F 41.4 °F 29.9 in South 12.1 mph 13 mph 94% 0 in 0 W/m2
22:22 43 °F 41.4 °F 29.9 in WNW 6.9 mph 11 mph 94% 0 in 0 W/m2
22:27 43 °F 41.4 °F 29.9 in NNE 4.9 mph 18 mph 94% 0 in 0 W/m2
22:32 43 °F 41.4 °F 29.9 in WSW 6.9 mph 11 mph 94% 0 in 0 W/m2
22:37 42.8 °F 41.2 °F 29.9 in NNW 0.9 mph 7 mph 94% 0 in 0 W/m2
22:42 42.8 °F 41.2 °F 29.9 in WSW 4 mph 13 mph 94% 0 in 0 W/m2
22:47 42.6 °F 41 °F 29.9 in NNW 4.9 mph 6 mph 94% 0 in 0 W/m2
22:52 42.6 °F 41 °F 29.9 in ENE 2.9 mph 5 mph 94% 0 in 0 W/m2
22:57 42.4 °F 40.8 °F 29.9 in West 6 mph 14 mph 94% 0 in 0 W/m2
23:02 42.4 °F 40.8 °F 29.9 in NNW 2.9 mph 9 mph 94% 0 in 0 W/m2
23:07 42.4 °F 40.8 °F 29.9 in South 2 mph 14 mph 94% 0 in 0 W/m2
23:12 42.4 °F 40.8 °F 29.9 in NNW 4.9 mph 12 mph 94% 0 in 0 W/m2
23:17 42.4 °F 40.8 °F 29.9 in NW 2.9 mph 8 mph 94% 0 in 0 W/m2
23:22 42.4 °F 40.8 °F 29.9 in WNW 2.9 mph 12 mph 94% 0 in 0 W/m2
23:28 42.4 °F 40.8 °F 29.9 in WSW 0.9 mph 10 mph 94% 0 in 0 W/m2
23:33 42.4 °F 40.8 °F 29.9 in NE 2 mph 5 mph 94% 0 in 0 W/m2
23:38 42.4 °F 40.8 °F 29.9 in WNW 8.9 mph 9 mph 94% 0 in 0 W/m2
23:43 42.4 °F 40.8 °F 29.9 in SSW 4.9 mph 8 mph 94% 0 in 0 W/m2
23:48 42.4 °F 40.8 °F 29.9 in NW 2.9 mph 8 mph 94% 0 in 0 W/m2
23:53 42.4 °F 40.8 °F 29.9 in NNW 8.1 mph 9 mph 94% 0 in 0 W/m2
23:58 42.4 °F 40.8 °F 29.9 in West 6.9 mph 12 mph 94% 0 in 0 W/m2
Juneau County Weather
Compliments of Weather Underground - 4 mb